createdAt,value
2018-12-02T00:00:09.304Z,24.20
2018-12-02T00:05:07.246Z,22.57
2018-12-02T00:10:05.072Z,27.07
2018-12-02T00:15:01.759Z,20.40
2018-12-02T00:19:58.402Z,19.70
2018-12-02T00:24:55.082Z,19.07
2018-12-02T00:29:51.824Z,18.63
2018-12-02T00:34:48.528Z,17.00
2018-12-02T00:39:45.229Z,18.37
2018-12-02T00:44:41.966Z,18.83
2018-12-02T00:49:38.650Z,16.43
2018-12-02T00:54:35.272Z,15.23
2018-12-02T00:59:31.959Z,17.90
2018-12-02T01:04:29.034Z,15.97
2018-12-02T01:09:25.661Z,14.63
2018-12-02T01:14:22.370Z,14.50
2018-12-02T01:19:19.106Z,13.73
2018-12-02T01:24:15.881Z,14.73
2018-12-02T01:29:12.752Z,14.23
2018-12-02T01:34:09.430Z,15.30
2018-12-02T01:39:06.780Z,13.00
2018-12-02T01:44:03.494Z,13.00
2018-12-02T01:49:00.259Z,12.80
2018-12-02T01:53:56.942Z,14.17
2018-12-02T01:58:53.616Z,16.00
2018-12-02T02:03:50.346Z,12.50
2018-12-02T02:08:47.044Z,12.60
2018-12-02T02:13:43.760Z,10.10
2018-12-02T02:18:40.443Z,11.70
2018-12-02T02:23:37.080Z,11.33
2018-12-02T02:28:33.754Z,10.43
2018-12-02T02:33:30.442Z,9.23
2018-12-02T02:38:27.348Z,11.17
2018-12-02T02:43:24.123Z,9.23
2018-12-02T02:48:20.813Z,8.97
2018-12-02T02:53:17.477Z,10.63
2018-12-02T02:58:14.159Z,9.83
2018-12-02T03:03:11.006Z,7.73
2018-12-02T03:08:07.684Z,8.17
2018-12-02T03:13:05.239Z,7.73
2018-12-02T03:18:02.145Z,7.63
2018-12-02T03:22:58.839Z,9.97
2018-12-02T03:27:55.536Z,9.33
2018-12-02T03:32:52.342Z,8.20
2018-12-02T03:37:49.099Z,7.20
2018-12-02T03:42:45.797Z,8.60
2018-12-02T03:47:42.544Z,9.27
2018-12-02T03:52:39.207Z,6.47
2018-12-02T03:57:35.957Z,9.57
2018-12-02T04:02:33.098Z,8.03
2018-12-02T04:07:29.863Z,6.67
2018-12-02T04:12:26.567Z,8.60
2018-12-02T04:17:23.269Z,6.83
2018-12-02T04:22:19.971Z,6.50
2018-12-02T04:27:16.644Z,7.57
2018-12-02T04:32:13.399Z,6.90
2018-12-02T04:37:10.098Z,8.33
2018-12-02T04:42:06.798Z,6.50
2018-12-02T04:47:03.419Z,7.97
2018-12-02T04:52:00.112Z,6.97
2018-12-02T04:56:56.999Z,8.80
2018-12-02T05:01:53.722Z,8.07
2018-12-02T05:06:50.403Z,8.43
2018-12-02T05:11:47.136Z,7.63
2018-12-02T05:16:43.817Z,8.03
2018-12-02T05:21:40.552Z,9.03
2018-12-02T05:26:37.214Z,7.63
2018-12-02T05:31:33.931Z,7.00
2018-12-02T05:36:30.614Z,7.07
2018-12-02T05:41:33.156Z,6.30
2018-12-02T05:46:29.873Z,6.80
2018-12-02T05:51:26.574Z,6.63
2018-12-02T05:56:23.222Z,6.70
2018-12-02T06:01:19.892Z,6.27
2018-12-02T06:06:16.516Z,5.73
2018-12-02T06:11:13.176Z,5.17
2018-12-02T06:16:09.811Z,5.47
2018-12-02T06:21:06.568Z,5.77
2018-12-02T06:26:03.253Z,4.93
2018-12-02T06:30:59.916Z,7.73
2018-12-02T06:35:56.750Z,6.73
2018-12-02T06:40:53.457Z,4.70
2018-12-02T06:45:50.144Z,5.13
2018-12-02T06:50:46.771Z,5.83
2018-12-02T06:55:48.299Z,6.57
2018-12-02T07:00:52.607Z,4.93
2018-12-02T07:05:49.342Z,5.37
2018-12-02T07:10:46.159Z,4.83
2018-12-02T07:15:42.967Z,5.63
2018-12-02T07:20:42.980Z,4.37
2018-12-02T07:25:43.780Z,4.23
2018-12-02T07:30:40.557Z,4.03
2018-12-02T07:35:37.262Z,6.90
2018-12-02T07:40:35.192Z,3.93
2018-12-02T07:45:31.998Z,6.33
2018-12-02T07:50:29.044Z,6.63
2018-12-02T07:55:25.662Z,4.53
2018-12-02T08:00:22.680Z,4.87
2018-12-02T08:05:19.403Z,4.70
2018-12-02T08:10:16.730Z,4.33
2018-12-02T08:15:14.120Z,6.30
2018-12-02T08:20:12.874Z,12.43
2018-12-02T08:25:10.588Z,12.90
2018-12-02T08:30:09.690Z,10.37
2018-12-02T08:35:07.024Z,13.53
2018-12-02T08:40:04.292Z,10.40
2018-12-02T08:45:01.447Z,8.83
2018-12-02T08:49:58.127Z,8.93
2018-12-02T08:54:54.836Z,19.47
2018-12-02T08:59:51.560Z,10.97
2018-12-02T09:04:48.426Z,6.43
2018-12-02T09:09:59.616Z,10.33
2018-12-02T09:14:52.588Z,10.63
2018-12-02T09:19:49.264Z,4.83
2018-12-02T09:24:46.350Z,9.03
2018-12-02T09:29:43.377Z,13.77
2018-12-02T09:34:40.141Z,9.33
2018-12-02T09:39:36.800Z,8.17
2018-12-02T09:44:33.598Z,7.23
2018-12-02T09:49:30.346Z,10.00
2018-12-02T09:54:27.739Z,10.43
2018-12-02T09:59:24.490Z,9.03
2018-12-02T10:04:21.802Z,5.10
2018-12-02T10:09:17.926Z,5.40
2018-12-02T10:14:14.604Z,7.97
2018-12-02T10:19:11.318Z,5.33
2018-12-02T10:24:08.064Z,4.13
2018-12-02T10:29:04.723Z,5.57
2018-12-02T10:34:01.452Z,3.70
2018-12-02T10:38:58.266Z,4.80
2018-12-02T10:43:54.943Z,4.33
2018-12-02T10:48:51.572Z,3.50
2018-12-02T10:53:48.336Z,3.70
2018-12-02T10:58:45.167Z,4.73
2018-12-02T11:03:41.979Z,3.13
2018-12-02T11:08:38.664Z,4.77
2018-12-02T11:13:35.478Z,4.67
2018-12-02T11:18:32.156Z,4.73
2018-12-02T11:23:30.522Z,7.30
2018-12-02T11:28:28.518Z,9.00
2018-12-02T11:33:25.231Z,4.90
2018-12-02T11:38:22.667Z,8.50
2018-12-02T11:43:20.514Z,6.77
2018-12-02T11:48:18.244Z,4.17
2018-12-02T11:53:17.097Z,5.60
2018-12-02T11:58:13.956Z,5.07
2018-12-02T12:03:10.708Z,4.60
2018-12-02T12:08:08.024Z,3.97
2018-12-02T12:13:04.791Z,3.97
2018-12-02T12:18:01.476Z,6.30
2018-12-02T12:22:58.122Z,8.87
2018-12-02T12:27:55.374Z,4.90
2018-12-02T12:32:52.837Z,4.50
2018-12-02T12:37:50.043Z,5.57
2018-12-02T12:42:55.074Z,4.67
2018-12-02T12:47:52.372Z,6.83
2018-12-02T12:52:49.310Z,4.90
2018-12-02T12:57:46.300Z,6.27
2018-12-02T13:02:43.278Z,4.90
2018-12-02T13:07:40.171Z,3.73
2018-12-02T13:12:37.004Z,3.77
2018-12-02T13:17:34.838Z,9.77
2018-12-02T13:22:32.742Z,5.83
2018-12-02T13:27:29.748Z,3.77
2018-12-02T13:32:26.709Z,5.03
2018-12-02T13:37:23.921Z,4.70
2018-12-02T13:42:20.762Z,6.10
2018-12-02T13:47:17.854Z,4.80
2018-12-02T13:52:14.932Z,8.03
2018-12-02T13:57:21.786Z,7.07
2018-12-02T14:02:18.568Z,8.43
2018-12-02T14:07:15.266Z,5.73
2018-12-02T14:12:13.146Z,5.37
2018-12-02T14:17:14.488Z,4.40
2018-12-02T14:22:11.714Z,5.00
2018-12-02T14:27:11.023Z,7.70
2018-12-02T14:32:10.191Z,6.43
2018-12-02T14:37:06.940Z,5.33
2018-12-02T14:42:03.738Z,4.17
2018-12-02T14:47:00.540Z,3.90
2018-12-02T14:51:57.323Z,3.10
2018-12-02T14:56:54.171Z,2.63
2018-12-02T15:01:50.889Z,3.70
2018-12-02T15:06:47.654Z,3.70
2018-12-02T15:11:44.527Z,3.33
2018-12-02T15:16:41.368Z,2.97
2018-12-02T15:21:38.211Z,3.33
2018-12-02T15:26:34.981Z,2.67
2018-12-02T15:31:31.835Z,3.23
2018-12-02T15:36:28.847Z,3.67
2018-12-02T15:41:25.548Z,3.93
2018-12-02T15:46:22.247Z,5.00
2018-12-02T15:51:19.697Z,6.80
2018-12-02T15:56:16.721Z,5.00
2018-12-02T16:01:13.457Z,7.17
2018-12-02T16:06:10.295Z,7.07
2018-12-02T16:11:06.996Z,7.17
2018-12-02T16:16:03.893Z,7.27
2018-12-02T16:21:01.944Z,4.90
2018-12-02T16:25:58.744Z,5.33
2018-12-02T16:30:55.418Z,8.03
2018-12-02T16:35:52.524Z,6.93
2018-12-02T16:40:50.304Z,6.47
2018-12-02T16:45:47.063Z,5.63
2018-12-02T16:50:44.466Z,5.17
2018-12-02T16:55:43.574Z,8.43
2018-12-02T17:01:12.090Z,7.97
2018-12-02T17:06:08.794Z,9.63
2018-12-02T17:11:05.750Z,7.80
2018-12-02T17:16:02.445Z,5.73
2018-12-02T17:20:59.098Z,5.87
2018-12-02T17:25:55.791Z,5.37
2018-12-02T17:30:53.486Z,7.47
2018-12-02T17:35:50.210Z,8.90
2018-12-02T17:40:46.927Z,6.87
2018-12-02T17:45:43.662Z,8.57
2018-12-02T17:50:40.353Z,7.47
2018-12-02T17:55:37.736Z,6.90
2018-12-02T18:00:34.099Z,7.00
2018-12-02T18:05:33.624Z,6.77
2018-12-02T18:10:30.252Z,8.20
2018-12-02T18:15:26.971Z,8.77
2018-12-02T18:20:23.643Z,8.90
2018-12-02T18:25:20.443Z,8.63
2018-12-02T18:30:20.390Z,8.53
2018-12-02T18:35:37.778Z,9.33
2018-12-02T18:40:35.256Z,9.33
2018-12-02T18:45:31.974Z,9.10
2018-12-02T18:50:28.745Z,8.73
2018-12-02T18:55:25.409Z,9.40
2018-12-02T19:00:27.827Z,11.10
2018-12-02T19:05:24.553Z,11.07
2018-12-02T19:10:22.944Z,9.90
2018-12-02T19:15:19.605Z,12.93
2018-12-02T19:20:17.097Z,11.87
2018-12-02T19:25:14.588Z,11.23
2018-12-02T19:30:12.900Z,10.20
2018-12-02T19:35:11.200Z,8.97
2018-12-02T19:40:10.032Z,12.53
2018-12-02T19:45:08.876Z,7.97
2018-12-02T19:50:07.112Z,9.07
2018-12-02T19:55:06.048Z,8.03
2018-12-02T20:00:03.918Z,8.50
2018-12-02T20:05:01.536Z,11.97
2018-12-02T20:10:00.077Z,14.23
2018-12-02T20:14:56.840Z,14.43
2018-12-02T20:20:00.100Z,10.47
2018-12-02T20:24:57.985Z,14.97
2018-12-02T20:29:55.915Z,12.93
2018-12-02T20:34:53.750Z,18.20
2018-12-02T20:39:50.511Z,13.30
2018-12-02T20:44:52.764Z,11.30
2018-12-02T20:49:47.250Z,28.00
2018-12-02T20:54:43.940Z,16.40
2018-12-02T20:59:40.632Z,34.80
2018-12-02T21:04:37.316Z,21.97
2018-12-02T21:09:35.597Z,18.00
2018-12-02T21:14:32.278Z,14.67
2018-12-02T21:19:28.955Z,13.63
2018-12-02T21:24:25.695Z,11.97
2018-12-02T21:29:22.414Z,15.13
2018-12-02T21:34:19.171Z,13.00
2018-12-02T21:39:15.855Z,13.77
2018-12-02T21:44:12.567Z,13.97
2018-12-02T21:49:09.277Z,14.60
2018-12-02T21:54:06.020Z,13.03
2018-12-02T21:59:03.119Z,13.77
2018-12-02T22:03:59.813Z,11.60
2018-12-02T22:08:56.489Z,10.70
2018-12-02T22:13:53.198Z,13.50
2018-12-02T22:18:49.919Z,10.87
2018-12-02T22:23:47.764Z,22.70
2018-12-02T22:28:44.507Z,15.90
2018-12-02T22:33:42.942Z,17.37
2018-12-02T22:38:39.670Z,21.33
2018-12-02T22:43:36.417Z,17.67
2018-12-02T22:48:33.104Z,13.67
2018-12-02T22:53:32.835Z,11.57
2018-12-02T22:58:30.258Z,20.93
2018-12-02T23:03:27.094Z,14.90
2018-12-02T23:08:23.885Z,14.23
2018-12-02T23:13:20.601Z,16.30
2018-12-02T23:18:17.280Z,12.33
2018-12-02T23:23:14.065Z,12.17
2018-12-02T23:28:10.750Z,38.13
2018-12-02T23:33:07.509Z,13.87
2018-12-02T23:38:04.965Z,12.50
2018-12-02T23:43:01.842Z,10.73
2018-12-02T23:47:58.482Z,8.17
2018-12-02T23:52:55.284Z,8.10
2018-12-02T23:57:52.012Z,8.27
